createdAt,value
2018-09-14T00:00:23.215Z,7.2
2018-09-14T00:00:52.537Z,7.1
2018-09-14T00:01:21.845Z,6.9
2018-09-14T00:01:51.169Z,6.7
2018-09-14T00:02:20.590Z,6.9
2018-09-14T00:02:50.324Z,6.9
2018-09-14T00:03:20.317Z,6.9
2018-09-14T00:03:49.631Z,7.2
2018-09-14T00:04:19.092Z,6.6
2018-09-14T00:04:48.402Z,6.7
2018-09-14T00:05:17.777Z,6.9
2018-09-14T00:05:47.148Z,7
2018-09-14T00:06:16.464Z,6.8
2018-09-14T00:06:45.780Z,6.8
2018-09-14T00:07:15.100Z,7.3
2018-09-14T00:07:44.439Z,7.5
2018-09-14T00:08:13.756Z,6.9
2018-09-14T00:08:43.086Z,6.7
2018-09-14T00:09:12.395Z,6.8
2018-09-14T00:09:41.719Z,6.8
2018-09-14T00:10:11.102Z,6.9
2018-09-14T00:10:40.424Z,6.6
2018-09-14T00:11:10.742Z,7
2018-09-14T00:11:40.076Z,6.8
2018-09-14T00:12:09.385Z,7.1
2018-09-14T00:12:38.700Z,7.1
2018-09-14T00:13:08.010Z,6.7
2018-09-14T00:13:37.326Z,6.8
2018-09-14T00:14:06.642Z,6.5
2018-09-14T00:14:35.963Z,7
2018-09-14T00:15:05.273Z,7
2018-09-14T00:15:34.659Z,6.5
2018-09-14T00:16:03.978Z,7.2
2018-09-14T00:16:33.307Z,6.8
2018-09-14T00:17:02.625Z,6.8
2018-09-14T00:17:31.967Z,6.6
2018-09-14T00:18:02.266Z,6.4
2018-09-14T00:18:31.590Z,6.4
2018-09-14T00:19:00.911Z,6.9
2018-09-14T00:19:30.232Z,6.6
2018-09-14T00:19:59.541Z,7.2
2018-09-14T00:20:28.923Z,7.8
2018-09-14T00:20:58.235Z,6.5
2018-09-14T00:21:27.571Z,6.6
2018-09-14T00:21:56.898Z,6.5
2018-09-14T00:22:26.213Z,6.5
2018-09-14T00:22:55.530Z,7.1
2018-09-14T00:23:24.849Z,6.4
2018-09-14T00:23:54.174Z,6.8
2018-09-14T00:24:23.493Z,7.3
2018-09-14T00:24:52.809Z,7.1
2018-09-14T00:25:22.134Z,6.9
2018-09-14T00:25:51.516Z,7.5
2018-09-14T00:26:20.799Z,6.4
2018-09-14T00:26:50.110Z,6.7
2018-09-14T00:27:19.419Z,7
2018-09-14T00:27:48.736Z,6.5
2018-09-14T00:28:18.047Z,6.3
2018-09-14T00:28:47.357Z,6.3
2018-09-14T00:29:16.671Z,6.6
2018-09-14T00:29:47.054Z,6.9
2018-09-14T00:30:16.362Z,6.7
2018-09-14T00:30:45.748Z,6.5
2018-09-14T00:31:15.094Z,6.2
2018-09-14T00:31:44.411Z,6.3
2018-09-14T00:32:13.729Z,6.3
2018-09-14T00:32:43.051Z,6.8
2018-09-14T00:33:12.362Z,6.3
2018-09-14T00:33:41.695Z,6.2
2018-09-14T00:34:11.006Z,6.3
2018-09-14T00:34:41.321Z,6.6
2018-09-14T00:35:10.632Z,6.2
2018-09-14T00:35:40.011Z,6.3
2018-09-14T00:36:09.307Z,6.6
2018-09-14T00:36:38.626Z,6.7
2018-09-14T00:37:07.938Z,6.4
2018-09-14T00:37:37.242Z,8.6
2018-09-14T00:38:06.553Z,9.7
2018-09-14T00:38:35.872Z,7.7
2018-09-14T00:39:05.197Z,6.8
2018-09-14T00:39:34.516Z,6.6
2018-09-14T00:40:03.832Z,7.2
2018-09-14T00:40:33.161Z,7.2
2018-09-14T00:41:02.542Z,7
2018-09-14T00:41:31.856Z,6.4
2018-09-14T00:42:01.174Z,7.5
2018-09-14T00:42:30.487Z,6.5
2018-09-14T00:42:59.806Z,6.5
2018-09-14T00:43:29.135Z,6.3
2018-09-14T00:43:58.468Z,6.3
2018-09-14T00:44:27.790Z,6.6
2018-09-14T00:44:57.102Z,6.2
2018-09-14T00:45:26.407Z,6.3
2018-09-14T00:45:55.717Z,6.1
2018-09-14T00:46:25.084Z,6.7
2018-09-14T00:46:55.405Z,6.5
2018-09-14T00:47:24.724Z,6.3
2018-09-14T00:47:54.036Z,6.8
2018-09-14T00:48:23.341Z,6.6
2018-09-14T00:48:52.659Z,6.8
2018-09-14T00:49:21.976Z,6.3
2018-09-14T00:49:51.282Z,6.7
2018-09-14T00:50:20.592Z,6.4
2018-09-14T00:50:49.900Z,6.1
2018-09-14T00:51:20.256Z,6.7
2018-09-14T00:51:49.558Z,6.8
2018-09-14T00:52:18.890Z,6.5
2018-09-14T00:52:48.191Z,6.3
2018-09-14T00:53:17.517Z,6.4
2018-09-14T00:53:46.849Z,6.4
2018-09-14T00:54:16.164Z,6.3
2018-09-14T00:54:45.473Z,6.5
2018-09-14T00:55:14.789Z,6.7
2018-09-14T00:55:44.096Z,6.7
2018-09-14T00:56:13.409Z,6.7
2018-09-14T00:56:42.767Z,6.3
2018-09-14T00:57:12.087Z,6.8
2018-09-14T00:57:41.405Z,6.5
2018-09-14T00:58:10.725Z,6.9
2018-09-14T00:58:41.036Z,6.7
2018-09-14T00:59:10.354Z,6.7
2018-09-14T00:59:39.680Z,6.6
2018-09-14T01:00:08.998Z,6.4
2018-09-14T01:00:38.327Z,6.2
2018-09-14T01:01:07.664Z,6.3
2018-09-14T01:01:37.067Z,6.6
2018-09-14T01:02:06.406Z,6.5
2018-09-14T01:02:35.732Z,6.5
2018-09-14T01:03:05.049Z,6.7
2018-09-14T01:03:34.380Z,6.5
2018-09-14T01:04:03.695Z,6.5
2018-09-14T01:04:33.009Z,6.9
2018-09-14T01:05:02.332Z,6.1
2018-09-14T01:05:31.654Z,6.7
2018-09-14T01:06:00.978Z,6.3
2018-09-14T01:06:30.305Z,6.2
2018-09-14T01:06:59.674Z,6.7
2018-09-14T01:07:28.979Z,6.3
2018-09-14T01:07:58.318Z,6.6
2018-09-14T01:08:27.626Z,6.8
2018-09-14T01:08:56.958Z,6.5
2018-09-14T01:09:26.284Z,6.5
2018-09-14T01:09:55.594Z,6.2
2018-09-14T01:10:24.956Z,6.3
2018-09-14T01:10:54.269Z,6.5
2018-09-14T01:11:23.585Z,6.2
2018-09-14T01:11:52.977Z,6.7
2018-09-14T01:12:22.291Z,6.3
2018-09-14T01:12:51.609Z,6.7
2018-09-14T01:13:20.930Z,6.4
2018-09-14T01:13:50.229Z,6.5
2018-09-14T01:14:19.612Z,6
2018-09-14T01:14:48.930Z,6.3
2018-09-14T01:15:18.240Z,6.2
2018-09-14T01:15:47.583Z,6
2018-09-14T01:16:16.917Z,6.8
2018-09-14T01:16:46.236Z,6.7
2018-09-14T01:17:15.683Z,6.5
2018-09-14T01:17:44.921Z,6.7
2018-09-14T01:18:14.253Z,6.7
2018-09-14T01:18:43.569Z,6.4
2018-09-14T01:19:12.882Z,6.5
2018-09-14T01:19:42.205Z,6.2
2018-09-14T01:20:11.543Z,6.5
2018-09-14T01:20:40.838Z,6.5
2018-09-14T01:21:10.165Z,6.6
2018-09-14T01:21:40.474Z,6.1
2018-09-14T01:22:09.870Z,6.3
2018-09-14T01:22:39.181Z,6.3
2018-09-14T01:23:08.502Z,6.4
2018-09-14T01:23:37.829Z,6.4
2018-09-14T01:24:07.140Z,6.7
2018-09-14T01:24:36.494Z,6.5
2018-09-14T01:25:05.770Z,6.9
2018-09-14T01:25:35.077Z,6.2
2018-09-14T01:26:04.389Z,6.1
2018-09-14T01:26:33.705Z,6
2018-09-14T01:27:03.041Z,6
2018-09-14T01:27:32.406Z,6.2
2018-09-14T01:28:01.749Z,6.3
2018-09-14T01:28:31.064Z,6.7
2018-09-14T01:29:00.355Z,6.6
2018-09-14T01:29:29.672Z,6
2018-09-14T01:29:58.977Z,6.6
2018-09-14T01:30:28.314Z,6.6
2018-09-14T01:30:57.622Z,6.3
2018-09-14T01:31:26.940Z,6.5
2018-09-14T01:31:56.239Z,6.4
2018-09-14T01:32:25.601Z,6.1
2018-09-14T01:32:54.913Z,6.4
2018-09-14T01:33:24.220Z,6.1
2018-09-14T01:33:53.510Z,6.4
2018-09-14T01:34:22.874Z,6.4
2018-09-14T01:34:53.173Z,6.5
2018-09-14T01:35:23.489Z,6.4
2018-09-14T01:35:52.787Z,6.4
2018-09-14T01:36:22.111Z,6.2
2018-09-14T01:36:51.449Z,6.6
2018-09-14T01:37:20.877Z,6.3
2018-09-14T01:37:50.176Z,6.7
2018-09-14T01:38:19.486Z,6.5
2018-09-14T01:38:48.829Z,6.3
2018-09-14T01:39:18.139Z,6.5
2018-09-14T01:39:47.461Z,6.6
2018-09-14T01:40:16.779Z,6.5
2018-09-14T01:40:46.138Z,6.3
2018-09-14T01:41:16.423Z,6.7
2018-09-14T01:41:45.720Z,6.3
2018-09-14T01:42:15.051Z,6.5
2018-09-14T01:42:44.399Z,6.7
2018-09-14T01:43:13.719Z,6.3
2018-09-14T01:43:43.054Z,6.2
2018-09-14T01:44:12.384Z,6.1
2018-09-14T01:44:41.706Z,6.8
2018-09-14T01:45:12.012Z,6.2
2018-09-14T01:45:41.334Z,6.1
2018-09-14T01:46:10.671Z,6.8
2018-09-14T01:46:39.977Z,6.1
2018-09-14T01:47:09.283Z,6.4
2018-09-14T01:47:38.652Z,6.9
2018-09-14T01:48:07.983Z,6.5
2018-09-14T01:48:37.295Z,6.7
2018-09-14T01:49:06.594Z,6.3
2018-09-14T01:49:35.922Z,6.6
2018-09-14T01:50:05.247Z,6.4
2018-09-14T01:50:34.540Z,6
2018-09-14T01:51:03.845Z,6.1
2018-09-14T01:51:33.176Z,6.1
2018-09-14T01:52:02.506Z,5.9
2018-09-14T01:52:31.832Z,6.5
2018-09-14T01:53:01.218Z,6.1
2018-09-14T01:53:30.547Z,6.6
2018-09-14T01:54:00.862Z,6.7
2018-09-14T01:54:30.219Z,6.3
2018-09-14T01:54:59.548Z,6.2
2018-09-14T01:55:28.855Z,6.1
2018-09-14T01:55:58.176Z,6.3
2018-09-14T01:56:27.495Z,6.1
2018-09-14T01:56:56.844Z,6.2
2018-09-14T01:57:26.161Z,6.3
2018-09-14T01:57:55.543Z,6.3
2018-09-14T01:58:24.864Z,6.3
2018-09-14T01:58:55.179Z,6.3
2018-09-14T01:59:24.510Z,6.3
2018-09-14T01:59:54.817Z,6.4
2018-09-14T02:00:24.128Z,6.4
2018-09-14T02:00:53.454Z,6.2
2018-09-14T02:01:22.769Z,6.3
2018-09-14T02:01:52.099Z,6.5
2018-09-14T02:02:21.413Z,6.3
2018-09-14T02:02:50.721Z,6.3
2018-09-14T02:03:20.155Z,6.5
2018-09-14T02:03:49.471Z,6.4
2018-09-14T02:04:18.794Z,6.3
2018-09-14T02:04:48.104Z,6.2
2018-09-14T02:05:17.431Z,6.4
2018-09-14T02:05:46.752Z,6.5
2018-09-14T02:06:16.047Z,6.2
2018-09-14T02:06:45.357Z,6.1
2018-09-14T02:07:14.684Z,6.7
2018-09-14T02:07:43.995Z,6.6
2018-09-14T02:08:13.324Z,6.3
2018-09-14T02:08:42.706Z,6.5
2018-09-14T02:09:12.030Z,6.4
2018-09-14T02:09:41.338Z,6.3
2018-09-14T02:10:10.641Z,6.1
2018-09-14T02:10:39.963Z,6.1
2018-09-14T02:11:09.277Z,6.1
2018-09-14T02:11:38.598Z,6.2
2018-09-14T02:12:07.926Z,6.5
2018-09-14T02:12:38.252Z,5.9
2018-09-14T02:13:07.561Z,5.9
2018-09-14T02:13:36.957Z,6.1
2018-09-14T02:14:06.282Z,5.9
2018-09-14T02:14:35.612Z,5.9
2018-09-14T02:15:04.925Z,6.2
2018-09-14T02:15:34.248Z,5.6
2018-09-14T02:16:03.577Z,6.3
2018-09-14T02:16:32.887Z,6.1
2018-09-14T02:17:02.206Z,6.1
2018-09-14T02:17:31.532Z,6.3
2018-09-14T02:18:00.857Z,6.4
2018-09-14T02:18:30.185Z,6.3
2018-09-14T02:18:59.560Z,6.2
2018-09-14T02:19:28.872Z,6.6
2018-09-14T02:19:58.194Z,6.8
2018-09-14T02:20:27.533Z,6.5
2018-09-14T02:20:56.847Z,6.3
2018-09-14T02:21:26.180Z,6.3
2018-09-14T02:21:55.493Z,6.6
2018-09-14T02:22:25.820Z,6.3
2018-09-14T02:22:55.144Z,6.5
2018-09-14T02:23:24.471Z,6.4
2018-09-14T02:23:54.834Z,6.4
2018-09-14T02:24:24.172Z,6.3
2018-09-14T02:24:53.493Z,5.9
2018-09-14T02:25:22.836Z,6.1
2018-09-14T02:25:53.192Z,6.6
2018-09-14T02:26:22.511Z,6.2
2018-09-14T02:26:51.827Z,6.3
2018-09-14T02:27:21.144Z,5.8
2018-09-14T02:27:50.469Z,6.7
2018-09-14T02:28:19.794Z,6.4
2018-09-14T02:28:49.180Z,6.2
2018-09-14T02:29:18.496Z,6.9
2018-09-14T02:29:48.790Z,6
2018-09-14T02:30:18.121Z,6.3
2018-09-14T02:30:47.452Z,6.7
2018-09-14T02:31:16.779Z,6.2
2018-09-14T02:31:46.096Z,6.6
2018-09-14T02:32:15.426Z,6.2
2018-09-14T02:32:44.775Z,6
2018-09-14T02:33:14.097Z,5.7
2018-09-14T02:33:43.399Z,6.5
2018-09-14T02:34:12.783Z,6.2
2018-09-14T02:34:42.104Z,6.1
2018-09-14T02:35:11.427Z,6.2
2018-09-14T02:35:40.737Z,6.1
2018-09-14T02:36:10.055Z,6.4
2018-09-14T02:36:39.411Z,6.6
2018-09-14T02:37:08.707Z,6.3
2018-09-14T02:37:38.015Z,6.1
2018-09-14T02:38:07.351Z,6.1
2018-09-14T02:38:36.675Z,6.5
2018-09-14T02:39:07.040Z,5.9
2018-09-14T02:39:36.351Z,6.6
2018-09-14T02:40:05.662Z,6.8
2018-09-14T02:40:35.036Z,7.1
2018-09-14T02:41:04.332Z,6.5
2018-09-14T02:41:33.651Z,6.5
2018-09-14T02:42:02.968Z,7
2018-09-14T02:42:32.291Z,6.7
2018-09-14T02:43:01.618Z,6.6
2018-09-14T02:43:30.946Z,6.1
2018-09-14T02:44:00.286Z,6.5
2018-09-14T02:44:29.669Z,6.3
2018-09-14T02:44:58.975Z,6.2
2018-09-14T02:45:28.299Z,6.5
2018-09-14T02:45:57.616Z,6.4
2018-09-14T02:46:26.942Z,6.1
2018-09-14T02:46:56.270Z,6.4
2018-09-14T02:47:25.668Z,6.2
2018-09-14T02:47:54.977Z,6.5
2018-09-14T02:48:24.316Z,6.3
2018-09-14T02:48:53.640Z,6.2
2018-09-14T02:49:22.952Z,6.1
2018-09-14T02:49:52.346Z,6.4
2018-09-14T02:50:21.651Z,5.8
2018-09-14T02:50:50.960Z,6
2018-09-14T02:51:20.274Z,6.5
2018-09-14T02:51:49.610Z,6.6
2018-09-14T02:52:18.934Z,6.1
2018-09-14T02:52:48.321Z,6.1
2018-09-14T02:53:17.633Z,5.9
2018-09-14T02:53:47.056Z,5.8
2018-09-14T02:54:16.450Z,5.7
2018-09-14T02:54:45.927Z,6.3
2018-09-14T02:55:15.322Z,6
2018-09-14T02:55:44.752Z,6.5
2018-09-14T02:56:14.169Z,5.8
2018-09-14T02:56:43.546Z,6.2
2018-09-14T02:57:12.958Z,6.5
2018-09-14T02:57:42.348Z,6.1
2018-09-14T02:58:11.744Z,6.3
2018-09-14T02:58:41.191Z,6.3
2018-09-14T02:59:10.578Z,5.7
2018-09-14T02:59:41.016Z,6.2
2018-09-14T03:00:10.445Z,6.5
2018-09-14T03:00:39.799Z,6
2018-09-14T03:01:09.193Z,5.9
2018-09-14T03:01:38.588Z,6.2
2018-09-14T03:02:07.964Z,6.4
2018-09-14T03:02:37.365Z,6.4
2018-09-14T03:03:06.761Z,6.1
2018-09-14T03:03:36.150Z,5.9
2018-09-14T03:04:05.552Z,6.1
2018-09-14T03:04:34.943Z,6.5
2018-09-14T03:05:05.370Z,6.4
2018-09-14T03:05:34.769Z,6.1
2018-09-14T03:06:04.163Z,6.4
2018-09-14T03:06:34.553Z,6
2018-09-14T03:07:03.960Z,6.1
2018-09-14T03:07:33.358Z,5.5
2018-09-14T03:08:02.758Z,6.3
2018-09-14T03:08:32.151Z,5.6
2018-09-14T03:09:01.540Z,6.2
2018-09-14T03:09:30.935Z,6
2018-09-14T03:10:00.378Z,6
2018-09-14T03:10:29.778Z,6.4
2018-09-14T03:11:00.182Z,5.8
2018-09-14T03:11:29.574Z,5.9
2018-09-14T03:11:58.963Z,6
2018-09-14T03:12:28.361Z,6.3
2018-09-14T03:12:57.764Z,5.8
2018-09-14T03:13:28.138Z,5.9
2018-09-14T03:13:57.538Z,6.1
2018-09-14T03:14:26.926Z,5.8
2018-09-14T03:14:56.309Z,6.3
2018-09-14T03:15:25.742Z,6.1
2018-09-14T03:15:55.131Z,6.6
2018-09-14T03:16:24.522Z,5.7
2018-09-14T03:16:53.911Z,6.3
2018-09-14T03:17:23.326Z,6.4
2018-09-14T03:17:52.735Z,6.1
2018-09-14T03:18:22.131Z,6.1
2018-09-14T03:18:51.528Z,6
2018-09-14T03:19:20.912Z,5.9
2018-09-14T03:19:50.308Z,5.9
2018-09-14T03:20:19.698Z,5.7
2018-09-14T03:20:49.139Z,6.2
2018-09-14T03:21:18.525Z,6.3
2018-09-14T03:21:47.909Z,6.4
2018-09-14T03:22:17.295Z,5.9
2018-09-14T03:22:46.670Z,6.1
2018-09-14T03:23:16.050Z,5.8
2018-09-14T03:23:45.444Z,6
2018-09-14T03:24:14.839Z,6
2018-09-14T03:24:44.222Z,6.1
2018-09-14T03:25:13.602Z,6
2018-09-14T03:25:43.062Z,5.8
2018-09-14T03:26:12.461Z,6
2018-09-14T03:26:41.847Z,5.3
2018-09-14T03:27:11.221Z,6.1
2018-09-14T03:27:40.631Z,5.9
2018-09-14T03:28:10.012Z,5.8
2018-09-14T03:28:39.384Z,5.6
2018-09-14T03:29:08.795Z,6.2
2018-09-14T03:29:38.180Z,6
2018-09-14T03:30:07.572Z,5.8
2018-09-14T03:30:36.969Z,6.1
2018-09-14T03:31:06.407Z,5.6
2018-09-14T03:31:35.785Z,6
2018-09-14T03:32:05.187Z,6.1
2018-09-14T03:32:34.578Z,6
2018-09-14T03:33:03.966Z,5.7
2018-09-14T03:33:33.368Z,5.9
2018-09-14T03:34:02.781Z,6.2
2018-09-14T03:34:32.166Z,6.2
2018-09-14T03:35:01.552Z,6.3
2018-09-14T03:35:30.928Z,6.2
2018-09-14T03:36:00.384Z,6.4
2018-09-14T03:36:29.772Z,5.8
2018-09-14T03:36:59.157Z,5.7
2018-09-14T03:37:29.537Z,5.9
2018-09-14T03:37:58.948Z,5.4
2018-09-14T03:38:29.332Z,6.2
2018-09-14T03:38:58.737Z,6
2018-09-14T03:39:28.127Z,6.3
2018-09-14T03:39:58.523Z,5.5
2018-09-14T03:40:27.917Z,5.9
2018-09-14T03:40:58.358Z,5.9
2018-09-14T03:41:27.746Z,5.8
2018-09-14T03:41:57.158Z,6.4
2018-09-14T03:42:26.562Z,6.6
2018-09-14T03:42:55.943Z,5.7
2018-09-14T03:43:25.333Z,6.3
2018-09-14T03:43:54.736Z,5.9
2018-09-14T03:44:24.124Z,5.5
2018-09-14T03:44:53.508Z,6.5
2018-09-14T03:45:22.898Z,6
2018-09-14T03:45:52.316Z,6.1
2018-09-14T03:46:21.771Z,6
2018-09-14T03:46:51.174Z,5.8
2018-09-14T03:47:20.557Z,6
2018-09-14T03:47:49.959Z,6.4
2018-09-14T03:48:19.359Z,5.8
2018-09-14T03:48:48.752Z,5.7
2018-09-14T03:49:18.145Z,5.7
2018-09-14T03:49:47.542Z,6
2018-09-14T03:50:16.948Z,6.2
2018-09-14T03:50:46.350Z,6
2018-09-14T03:51:15.736Z,5.9
2018-09-14T03:51:45.187Z,6.3
2018-09-14T03:52:14.586Z,5.5
2018-09-14T03:52:43.987Z,6.1
2018-09-14T03:53:13.363Z,6
2018-09-14T03:53:42.747Z,5.7
2018-09-14T03:54:12.139Z,6.3
2018-09-14T03:54:41.518Z,6.2
2018-09-14T03:55:10.917Z,5.9
2018-09-14T03:55:40.327Z,6.1
2018-09-14T03:56:09.710Z,6.7
2018-09-14T03:56:39.157Z,6.2
2018-09-14T03:57:08.637Z,6.4
2018-09-14T03:57:37.956Z,5.9
2018-09-14T03:58:07.351Z,6
2018-09-14T03:58:36.726Z,6
2018-09-14T03:59:06.112Z,6
2018-09-14T03:59:35.514Z,6.7
2018-09-14T04:00:04.910Z,6.2
2018-09-14T04:00:34.344Z,6.2
2018-09-14T04:01:03.750Z,5.9
2018-09-14T04:01:33.162Z,6
2018-09-14T04:02:03.586Z,5.9
2018-09-14T04:02:32.986Z,5.9
2018-09-14T04:03:02.410Z,6.1
2018-09-14T04:03:31.797Z,6
2018-09-14T04:04:01.198Z,6.2
2018-09-14T04:04:30.606Z,6
2018-09-14T04:05:00.002Z,6
2018-09-14T04:05:29.398Z,6.2
2018-09-14T04:05:58.796Z,6
2018-09-14T04:06:28.199Z,6.4
2018-09-14T04:06:57.633Z,6.5
2018-09-14T04:07:27.033Z,6.4
2018-09-14T04:07:56.508Z,6
2018-09-14T04:08:25.830Z,6.2
2018-09-14T04:08:55.219Z,6.3
2018-09-14T04:09:24.615Z,5.9
2018-09-14T04:09:53.998Z,6.3
2018-09-14T04:10:23.401Z,5.8
2018-09-14T04:10:52.784Z,5.9
2018-09-14T04:11:22.195Z,6.2
2018-09-14T04:11:51.599Z,6.1
2018-09-14T04:12:21.038Z,6.1
2018-09-14T04:12:50.418Z,5.8
2018-09-14T04:13:19.776Z,6.1
2018-09-14T04:13:50.152Z,6.2
2018-09-14T04:14:19.550Z,6.1
2018-09-14T04:14:48.952Z,6.1
2018-09-14T04:15:18.355Z,5.6
2018-09-14T04:15:47.734Z,5.9
2018-09-14T04:16:17.126Z,5.6
2018-09-14T04:16:46.519Z,5.8
2018-09-14T04:17:15.965Z,6
2018-09-14T04:17:45.355Z,6.1
2018-09-14T04:18:14.744Z,6.2
2018-09-14T04:18:44.196Z,5.6
2018-09-14T04:19:13.591Z,5.8
2018-09-14T04:19:42.973Z,6
2018-09-14T04:20:12.387Z,5.9
2018-09-14T04:20:41.783Z,6.6
2018-09-14T04:21:11.170Z,6.3
2018-09-14T04:21:40.574Z,6.3
2018-09-14T04:22:11.033Z,6
2018-09-14T04:22:40.477Z,6.2
2018-09-14T04:23:09.819Z,5.9
2018-09-14T04:23:39.253Z,6.2
2018-09-14T04:24:08.584Z,6.2
2018-09-14T04:24:38.995Z,6
2018-09-14T04:25:08.444Z,6.3
2018-09-14T04:25:37.853Z,5.8
2018-09-14T04:26:07.272Z,6.4
2018-09-14T04:26:36.666Z,6
2018-09-14T04:27:06.062Z,6.2
2018-09-14T04:27:35.515Z,6.1
2018-09-14T04:28:04.912Z,6.1
2018-09-14T04:28:34.326Z,6.1
2018-09-14T04:29:03.723Z,6.5
2018-09-14T04:29:33.140Z,5.8
2018-09-14T04:30:02.536Z,6.4
2018-09-14T04:30:31.940Z,6.1
2018-09-14T04:31:01.339Z,6.4
2018-09-14T04:31:31.722Z,6.3
2018-09-14T04:32:01.140Z,6.1
2018-09-14T04:32:30.596Z,6.1
2018-09-14T04:33:00.029Z,6
2018-09-14T04:33:29.423Z,6.3
2018-09-14T04:33:59.815Z,5.8
2018-09-14T04:34:29.225Z,6.5
2018-09-14T04:34:58.615Z,6.1
2018-09-14T04:35:28.010Z,6.4
2018-09-14T04:35:57.404Z,6
2018-09-14T04:36:26.802Z,6.1
2018-09-14T04:36:56.228Z,6.2
2018-09-14T04:37:25.617Z,6.2
2018-09-14T04:37:55.097Z,5.9
2018-09-14T04:38:24.501Z,6.1
2018-09-14T04:38:53.870Z,6.5
2018-09-14T04:39:23.248Z,6
2018-09-14T04:39:52.663Z,6
2018-09-14T04:40:22.063Z,6.2
2018-09-14T04:40:51.467Z,6.7
2018-09-14T04:41:20.875Z,6.2
2018-09-14T04:41:50.273Z,6.4
2018-09-14T04:42:19.654Z,6.2
2018-09-14T04:42:49.037Z,6.1
2018-09-14T04:43:18.492Z,6.1
2018-09-14T04:43:47.884Z,6
2018-09-14T04:44:17.260Z,6.7
2018-09-14T04:44:46.647Z,6
2018-09-14T04:45:16.034Z,6.1
2018-09-14T04:45:45.430Z,5.9
2018-09-14T04:46:14.805Z,6.5
2018-09-14T04:46:44.217Z,6.4
2018-09-14T04:47:13.602Z,5.9
2018-09-14T04:47:43.021Z,6.5
2018-09-14T04:48:12.515Z,6.2
2018-09-14T04:48:41.876Z,6.3
2018-09-14T04:49:11.286Z,6.4
2018-09-14T04:49:40.673Z,6.5
2018-09-14T04:50:11.071Z,5.9
2018-09-14T04:50:41.468Z,6.5
2018-09-14T04:51:10.923Z,6.4
2018-09-14T04:51:40.291Z,6
2018-09-14T04:52:09.689Z,6.4
2018-09-14T04:52:39.098Z,6.6
2018-09-14T04:53:08.573Z,6.6
2018-09-14T04:53:37.939Z,7
2018-09-14T04:54:07.341Z,6.2
2018-09-14T04:54:36.742Z,6.3
2018-09-14T04:55:06.134Z,6.3
2018-09-14T04:55:35.539Z,6.5
2018-09-14T04:56:04.934Z,6.4
2018-09-14T04:56:34.321Z,6.2
2018-09-14T04:57:03.727Z,6.2
2018-09-14T04:57:33.196Z,6.8
2018-09-14T04:58:02.515Z,6.3
2018-09-14T04:58:31.958Z,6
2018-09-14T04:59:01.350Z,6.9
2018-09-14T04:59:30.749Z,5.8
2018-09-14T05:00:00.141Z,6.9
2018-09-14T05:00:29.552Z,6.4
2018-09-14T05:00:58.958Z,6.6
2018-09-14T05:01:28.370Z,7
2018-09-14T05:01:58.770Z,6.8
2018-09-14T05:02:28.168Z,6.7
2018-09-14T05:02:57.650Z,7
2018-09-14T05:03:27.023Z,6.8
2018-09-14T05:03:56.421Z,7.5
2018-09-14T05:04:25.821Z,6.6
2018-09-14T05:04:55.223Z,7.4
2018-09-14T05:05:24.614Z,7.5
2018-09-14T05:05:55.007Z,7.4
2018-09-14T05:06:24.419Z,7.4
2018-09-14T05:06:53.819Z,7.8
2018-09-14T05:07:23.213Z,7.4
2018-09-14T05:07:52.591Z,7.1
2018-09-14T05:08:21.998Z,7.5
2018-09-14T05:08:51.451Z,6.7
2018-09-14T05:09:20.844Z,7
2018-09-14T05:09:50.250Z,6.9
2018-09-14T05:10:19.655Z,6.4
2018-09-14T05:10:49.038Z,6.7
2018-09-14T05:11:18.441Z,6.9
2018-09-14T05:11:47.832Z,6.8
2018-09-14T05:12:17.228Z,7.1
2018-09-14T05:12:46.612Z,6.6
2018-09-14T05:13:16.021Z,6.5
2018-09-14T05:13:45.433Z,7
2018-09-14T05:14:14.943Z,7
2018-09-14T05:14:44.298Z,6
2018-09-14T05:15:13.690Z,6.8
2018-09-14T05:15:43.149Z,6.6
2018-09-14T05:16:12.487Z,6.9
2018-09-14T05:16:41.889Z,6.8
2018-09-14T05:17:11.285Z,6.4
2018-09-14T05:17:40.676Z,6.7
2018-09-14T05:18:10.066Z,6.7
2018-09-14T05:18:39.449Z,6.8
2018-09-14T05:19:09.898Z,6.5
2018-09-14T05:19:39.289Z,6.6
2018-09-14T05:20:08.666Z,6.6
2018-09-14T05:20:38.050Z,6.7
2018-09-14T05:21:07.441Z,6.2
2018-09-14T05:21:36.839Z,6.7
2018-09-14T05:22:06.237Z,6.6
2018-09-14T05:22:35.630Z,6.8
2018-09-14T05:23:05.015Z,6.8
2018-09-14T05:23:34.406Z,7.1
2018-09-14T05:24:03.819Z,7.3
2018-09-14T05:24:33.271Z,7
2018-09-14T05:25:02.733Z,6.5
2018-09-14T05:25:32.031Z,6.7
2018-09-14T05:26:01.424Z,6.8
2018-09-14T05:26:30.819Z,6.4
2018-09-14T05:27:00.207Z,6.6
2018-09-14T05:27:29.612Z,6.5
2018-09-14T05:27:59.003Z,6.4
2018-09-14T05:28:28.409Z,6.8
2018-09-14T05:28:57.821Z,6.9
2018-09-14T05:29:27.267Z,7.7
2018-09-14T05:29:56.687Z,10.8
2018-09-14T05:30:26.083Z,11.6
2018-09-14T05:30:55.468Z,12.3
2018-09-14T05:31:24.867Z,16.4
2018-09-14T05:31:55.254Z,16.9
2018-09-14T05:32:24.634Z,16.200001
2018-09-14T05:32:54.018Z,16.6
2018-09-14T05:33:23.395Z,17.1
2018-09-14T05:33:53.782Z,16.299999
2018-09-14T05:34:23.240Z,16.6
2018-09-14T05:34:52.633Z,17.6
2018-09-14T05:35:22.024Z,19.299999
2018-09-14T05:35:51.419Z,20.700001
2018-09-14T05:36:20.819Z,20.200001
2018-09-14T05:36:50.221Z,18.200001
2018-09-14T05:37:19.615Z,17.6
2018-09-14T05:37:49.014Z,16.700001
2018-09-14T05:38:18.430Z,16.1
2018-09-14T05:38:47.810Z,15.6
2018-09-14T05:39:17.211Z,15.3
2018-09-14T05:39:47.645Z,14.4
2018-09-14T05:40:17.033Z,14.4
2018-09-14T05:40:46.429Z,14.2
2018-09-14T05:41:15.818Z,13.7
2018-09-14T05:41:46.220Z,13.6
2018-09-14T05:42:15.626Z,13.9
2018-09-14T05:42:45.045Z,13.5
2018-09-14T05:43:14.435Z,13.5
2018-09-14T05:43:43.830Z,12.8
2018-09-14T05:44:13.221Z,13.2
2018-09-14T05:44:42.676Z,12.8
2018-09-14T05:45:12.055Z,12.4
2018-09-14T05:45:41.475Z,12.6
2018-09-14T05:46:10.849Z,12.7
2018-09-14T05:46:40.251Z,11.8
2018-09-14T05:47:09.643Z,12.3
2018-09-14T05:47:39.043Z,11.9
2018-09-14T05:48:08.440Z,11.4
2018-09-14T05:48:37.832Z,12.1
2018-09-14T05:49:07.231Z,11.9
2018-09-14T05:49:36.618Z,12.4
2018-09-14T05:50:06.069Z,12.6
2018-09-14T05:50:35.480Z,11.4
2018-09-14T05:51:04.904Z,11.3
2018-09-14T05:51:34.297Z,11.8
2018-09-14T05:52:03.691Z,11.2
2018-09-14T05:52:33.089Z,10.8
2018-09-14T05:53:02.476Z,11.3
2018-09-14T05:53:31.862Z,10.9
2018-09-14T05:54:01.257Z,11
2018-09-14T05:54:30.659Z,10.8
2018-09-14T05:55:00.070Z,11.4
2018-09-14T05:55:29.516Z,11.4
2018-09-14T05:55:58.898Z,11
2018-09-14T05:56:28.269Z,11.8
2018-09-14T05:56:57.643Z,11.7
2018-09-14T05:57:27.040Z,11
2018-09-14T05:57:56.442Z,12.4
2018-09-14T05:58:25.823Z,12.6
2018-09-14T05:58:55.211Z,12.5
2018-09-14T05:59:24.604Z,13
2018-09-14T05:59:54.002Z,12.8
2018-09-14T06:00:24.435Z,12.8
2018-09-14T06:00:53.819Z,12.7
2018-09-14T06:01:23.226Z,13.1
2018-09-14T06:01:52.628Z,12.7
2018-09-14T06:02:22.037Z,13.4
2018-09-14T06:02:51.428Z,12.9
2018-09-14T06:03:20.833Z,12.9
2018-09-14T06:03:50.215Z,12.4
2018-09-14T06:04:19.606Z,12.1
2018-09-14T06:04:48.999Z,13
2018-09-14T06:05:18.445Z,12.2
2018-09-14T06:05:47.848Z,12.2
2018-09-14T06:06:17.248Z,12.4
2018-09-14T06:06:46.626Z,11.6
2018-09-14T06:07:16.015Z,10.9
2018-09-14T06:07:45.454Z,11.4
2018-09-14T06:08:14.852Z,11.5
2018-09-14T06:08:44.239Z,12.2
2018-09-14T06:09:13.627Z,11.9
2018-09-14T06:09:43.008Z,11.5
2018-09-14T06:10:12.394Z,11.5
2018-09-14T06:10:41.845Z,12
2018-09-14T06:11:11.236Z,11.8
2018-09-14T06:11:40.615Z,11.8
2018-09-14T06:12:10.018Z,11.8
2018-09-14T06:12:39.422Z,11.2
2018-09-14T06:13:08.822Z,11.4
2018-09-14T06:13:38.223Z,12.3
2018-09-14T06:14:07.616Z,11.2
2018-09-14T06:14:37.018Z,12
2018-09-14T06:15:06.410Z,11.9
2018-09-14T06:15:35.814Z,12
2018-09-14T06:16:05.262Z,11.6
2018-09-14T06:16:34.645Z,11.6
2018-09-14T06:17:04.054Z,12.3
2018-09-14T06:17:33.417Z,12.1
2018-09-14T06:18:02.812Z,12.6
2018-09-14T06:18:32.205Z,10.8
2018-09-14T06:19:01.584Z,11.5
2018-09-14T06:19:30.975Z,12.4
2018-09-14T06:20:00.395Z,12.1
2018-09-14T06:20:29.770Z,11.9
2018-09-14T06:20:59.217Z,13.8
2018-09-14T06:21:28.610Z,13.2
2018-09-14T06:21:58.003Z,13.1
2018-09-14T06:22:27.450Z,13.7
2018-09-14T06:22:56.901Z,13.3
2018-09-14T06:23:26.165Z,14.1
2018-09-14T06:23:55.551Z,13.7
2018-09-14T06:24:24.975Z,14.2
2018-09-14T06:24:54.317Z,14.8
2018-09-14T06:25:23.713Z,14.1
2018-09-14T06:25:53.107Z,13.8
2018-09-14T06:26:22.561Z,13.7
2018-09-14T06:26:51.946Z,13.6
2018-09-14T06:27:21.339Z,13.9
2018-09-14T06:27:50.725Z,14.2
2018-09-14T06:28:20.096Z,13.5
2018-09-14T06:28:49.466Z,13.9
2018-09-14T06:29:18.846Z,12.9
2018-09-14T06:29:48.264Z,12.5
2018-09-14T06:30:17.702Z,12.2
2018-09-14T06:30:47.085Z,12
2018-09-14T06:31:16.508Z,11.6
2018-09-14T06:31:45.905Z,11.5
2018-09-14T06:32:15.276Z,11.4
2018-09-14T06:32:44.674Z,11.8
2018-09-14T06:33:14.058Z,11.3
2018-09-14T06:33:43.446Z,11.7
2018-09-14T06:34:12.826Z,11.5
2018-09-14T06:34:42.223Z,11.9
2018-09-14T06:35:11.604Z,11.6
2018-09-14T06:35:40.988Z,11.4
2018-09-14T06:36:10.376Z,11.5
2018-09-14T06:36:39.805Z,11.2
2018-09-14T06:37:09.204Z,11.6
2018-09-14T06:37:38.608Z,11.1
2018-09-14T06:38:08.028Z,11.4
2018-09-14T06:38:37.394Z,11.5
2018-09-14T06:39:06.791Z,11.7
2018-09-14T06:39:36.200Z,11.2
2018-09-14T06:40:05.576Z,11
2018-09-14T06:40:34.972Z,10.7
2018-09-14T06:41:04.368Z,11
2018-09-14T06:41:33.815Z,11.3
2018-09-14T06:42:03.208Z,11.7
2018-09-14T06:42:32.615Z,11.3
2018-09-14T06:43:02.004Z,10.6
2018-09-14T06:43:31.410Z,11.1
2018-09-14T06:44:00.811Z,11.6
2018-09-14T06:44:30.208Z,11.2